Mars — XPC8385 — position and weather

sailwx.info

Track history (hours):
 
Tides and Currents Weather Stations Pressure Air Temp Water Temp Dewpoint Dewpoint Depression Visibility Wind Speed Wind Dir Waves Ship Positions

Mars

Last reported at 2017-Nov-19 16:00 UTC. Time now 2017-Nov-20 12:08 UTC.
Position N 55°18' E 014°50'.

Length 14 m; draft 1.7 m.

Type: Pilot. MMSI: 219001058.

Date/timePositionNaut miles runAvg speedWind from/ knotsBaromVisibWave heightAir tempDewpointWater temp
2017-Nov-19 16:00N 55°18' E 014°50'2 0.1
2017-Nov-18 10:32N 55°17' E 014°48'1 2.3
2017-Nov-18 10:18N 55°17' E 014°48'1 2.6
2017-Nov-18 09:52N 55°18' E 014°50'1 3.1
2017-Nov-18 09:24N 55°17' E 014°48'2 5.6
2017-Nov-18 09:00N 55°19' E 014°50'2 0.2
2017-Nov-17 18:22N 55°17' E 014°48'0 0.0
2017-Nov-17 05:21N 55°17' E 014°48'2 3.8
2017-Nov-17 04:56N 55°18' E 014°50'1 0.0
2017-Nov-16 14:53N 55°18' E 014°51'1 0.4
2017-Nov-16 10:49N 55°17' E 014°48'2 7.9
2017-Nov-16 10:30N 55°20' E 014°50'3 0.3
2017-Nov-16 02:54N 55°17' E 014°48'0 0.0
2017-Nov-15 17:22N 55°17' E 014°49'1 3.7
2017-Nov-15 17:00N 55°18' E 014°51'1 0.1
2017-Nov-15 03:47N 55°18' E 014°49'1 0.0
2017-Nov-14 07:59N 55°17' E 014°48'0 0.0
2017-Nov-14 07:23N 55°17' E 014°48'0 0.0
2017-Nov-14 06:47N 55°17' E 014°48'0 0.0
2017-Nov-14 06:23N 55°17' E 014°48'0 0.0
2017-Nov-14 05:47N 55°17' E 014°48'0 0.0
2017-Nov-14 05:30N 55°17' E 014°48'0 0.0
2017-Nov-14 04:43N 55°17' E 014°48'0 0.0
2017-Nov-14 04:25N 55°17' E 014°48'0 0.0
2017-Nov-14 03:55N 55°17' E 014°48'0 0.0
2017-Nov-14 03:25N 55°17' E 014°48'0 0.0
2017-Nov-14 02:49N 55°17' E 014°48'0 0.0
2017-Nov-14 02:13N 55°17' E 014°48'0 0.0
2017-Nov-14 01:49N 55°17' E 014°48'0 0.0
2017-Nov-14 01:25N 55°17' E 014°48'0 0.0
2017-Nov-14 00:01N 55°17' E 014°48'0 0.0
2017-Nov-13 23:37N 55°17' E 014°48'0 0.0
2017-Nov-13 23:19N 55°17' E 014°48'0 0.0
2017-Nov-13 22:43N 55°17' E 014°48'0 0.0
2017-Nov-12 02:52N 55°17' E 014°48'  
2017-Nov-09 17:33N 55°18' E 014°50'111.8
2017-Nov-09 17:29N 55°18' E 014°50'1 1.0
2017-Nov-09 16:09N 55°17' E 014°52'  
Track history (hours):
 
Tides and Currents Weather Stations Pressure Air Temp Water Temp Dewpoint Dewpoint Depression Visibility Wind Speed Wind Dir Waves Ship Positions

Mars

Last reported at 2017-Nov-19 16:00 UTC. Time now 2017-Nov-20 12:08 UTC.
Position N 55°18' E 014°50'.

Length 14 m; draft 1.7 m.

Type: Pilot. MMSI: 219001058.

Date/timePositionNaut miles runAvg speedWind from/ knotsBaromVisibWave heightAir tempDewpointWater temp
2017-Nov-19 16:00N 55°18' E 014°50'2 0.1
2017-Nov-18 10:32N 55°17' E 014°48'1 2.3
2017-Nov-18 10:18N 55°17' E 014°48'1 2.6
2017-Nov-18 09:52N 55°18' E 014°50'1 3.1
2017-Nov-18 09:24N 55°17' E 014°48'2 5.6
2017-Nov-18 09:00N 55°19' E 014°50'2 0.2
2017-Nov-17 18:22N 55°17' E 014°48'0 0.0
2017-Nov-17 05:21N 55°17' E 014°48'2 3.8
2017-Nov-17 04:56N 55°18' E 014°50'1 0.0
2017-Nov-16 14:53N 55°18' E 014°51'1 0.4
2017-Nov-16 10:49N 55°17' E 014°48'2 7.9
2017-Nov-16 10:30N 55°20' E 014°50'3 0.3
2017-Nov-16 02:54N 55°17' E 014°48'0 0.0
2017-Nov-15 17:22N 55°17' E 014°49'1 3.7
2017-Nov-15 17:00N 55°18' E 014°51'1 0.1
2017-Nov-15 03:47N 55°18' E 014°49'1 0.0
2017-Nov-14 07:59N 55°17' E 014°48'0 0.0
2017-Nov-14 07:23N 55°17' E 014°48'0 0.0
2017-Nov-14 06:47N 55°17' E 014°48'0 0.0
2017-Nov-14 06:23N 55°17' E 014°48'0 0.0
2017-Nov-14 05:47N 55°17' E 014°48'0 0.0
2017-Nov-14 05:30N 55°17' E 014°48'0 0.0
2017-Nov-14 04:43N 55°17' E 014°48'0 0.0
2017-Nov-14 04:25N 55°17' E 014°48'0 0.0
2017-Nov-14 03:55N 55°17' E 014°48'0 0.0
2017-Nov-14 03:25N 55°17' E 014°48'0 0.0
2017-Nov-14 02:49N 55°17' E 014°48'0 0.0
2017-Nov-14 02:13N 55°17' E 014°48'0 0.0
2017-Nov-14 01:49N 55°17' E 014°48'0 0.0
2017-Nov-14 01:25N 55°17' E 014°48'0 0.0
2017-Nov-14 00:01N 55°17' E 014°48'0 0.0
2017-Nov-13 23:37N 55°17' E 014°48'0 0.0
2017-Nov-13 23:19N 55°17' E 014°48'0 0.0
2017-Nov-13 22:43N 55°17' E 014°48'0 0.0
2017-Nov-12 02:52N 55°17' E 014°48'  
2017-Nov-09 17:33N 55°18' E 014°50'111.8
2017-Nov-09 17:29N 55°18' E 014°50'1 1.0
2017-Nov-09 16:09N 55°17' E 014°52'  

Dump ship's entire track history